Data for 06/16/2018

Time Sea-Level Adjusted Pressure Absolute Pressure Temperature Relative Humidity Dew Point   
(mb) (inHg) (mb) (inHg) (C) (F) (%) (C) (F)
00:05 1014 29.94 843 24.89 10.1 50.2 85 7.7 45.9
00:10 1014 29.94 843 24.89 10.1 50.2 86 7.8 46.1
00:15 1014 29.94 843 24.89 10.1 50.1 86 7.8 46
00:20 1014 29.94 843 24.89 10 49.9 86 7.8 46
00:25 1014 29.94 843 24.89 9.7 49.4 88 7.8 46
00:30 1014 29.94 843 24.89 9.5 49.1 88 7.6 45.6
00:35 1014 29.94 843 24.89 9.5 49 88 7.5 45.5
00:40 1013 29.91 843 24.89 9.4 48.8 88 7.5 45.5
00:45 1014 29.94 843 24.89 9.4 48.9 89 7.6 45.7
00:50 1014 29.94 843 24.89 9.4 48.8 89 7.6 45.7
00:55 1013 29.91 843 24.89 9.4 48.9 88 7.6 45.6
01:00 1013 29.91 842 24.86 9.3 48.7 89 7.5 45.5
01:05 1013 29.91 842 24.86 9.3 48.7 89 7.5 45.6
01:10 1013 29.91 842 24.86 9.3 48.7 89 7.5 45.5
01:15 1013 29.91 842 24.86 9.3 48.8 88 7.5 45.5
01:20 1013 29.91 842 24.86 9.5 49 88 7.6 45.7
01:25 1013 29.91 842 24.86 9.6 49.3 88 7.7 45.9
01:30 1013 29.91 842 24.86 9.5 49.1 88 7.6 45.8
01:35 1013 29.91 842 24.86 9.4 48.9 89 7.6 45.6
01:40 1013 29.91 842 24.86 9.2 48.5 89 7.5 45.4
01:45 1013 29.91 842 24.86 9.1 48.3 90 7.5 45.4
01:50 1013 29.91 842 24.86 9.1 48.4 90 7.6 45.7
01:55 1013 29.91 842 24.86 9.3 48.7 90 7.6 45.7
02:00 1013 29.91 842 24.86 9.2 48.6 89 7.5 45.5
02:05 1013 29.91 842 24.86 9.2 48.5 89 7.5 45.4
02:10 1013 29.91 842 24.86 9.1 48.4 89 7.4 45.4
02:15 1013 29.91 842 24.86 9.1 48.5 90 7.6 45.6
02:20 1013 29.91 842 24.86 9.3 48.7 89 7.6 45.6
02:25 1012 29.88 842 24.86 9.2 48.5 90 7.5 45.5
02:30 1012 29.88 842 24.86 9.1 48.4 89 7.4 45.4
02:35 1012 29.88 842 24.86 9 48.3 90 7.4 45.4
02:40 1012 29.88 842 24.86 9.1 48.4 89 7.4 45.4
02:45 1012 29.88 841 24.83 9.1 48.5 87 7.1 44.9
02:50 1012 29.88 841 24.83 9.3 48.7 88 7.4 45.2
02:55 1012 29.88 841 24.83 9.3 48.7 86 7 44.6
03:00 1012 29.88 841 24.83 9.4 48.9 81 6.3 43.3
03:05 1012 29.88 841 24.83 9.5 49 81 6.4 43.5
03:10 1012 29.88 841 24.83 9.5 49.1 81 6.4 43.5
03:15 1012 29.88 841 24.83 9.5 49.1 81 6.3 43.4
03:20 1012 29.88 841 24.83 9.5 49.1 80 6.2 43.2
03:25 1012 29.88 841 24.83 9.5 49.1 80 6.2 43.2
03:30 1012 29.88 841 24.83 9.5 49.1 79 6 42.9
03:35 1012 29.88 841 24.83 9.5 49.1 79 6 42.8
03:40 1012 29.88 841 24.83 9.5 49.2 78 5.9 42.7
03:45 1011 29.85 841 24.83 9.5 49.2 79 6.1 43
03:50 1011 29.85 841 24.83 9.5 49.1 78 6 42.7
03:55 1011 29.85 840 24.81 9.5 49.1 79 6 42.9
04:00 1011 29.85 840 24.81 9.4 49 79 6 42.7
04:05 1011 29.85 840 24.81 9.4 48.9 78 5.8 42.5
04:10 1011 29.85 840 24.81 9.3 48.8 79 5.8 42.5
04:15 1011 29.85 841 24.83 9.3 48.8 79 5.8 42.5
04:20 1011 29.85 841 24.83 9.3 48.8 79 5.9 42.6
04:25 1011 29.85 841 24.83 9.3 48.7 78 5.7 42.3
04:30 1011 29.85 840 24.81 9.3 48.7 78 5.6 42.2
04:35 1011 29.85 841 24.83 9.2 48.6 79 5.7 42.3
04:40 1011 29.85 840 24.81 9.2 48.6 78 5.6 42.1
04:45 1011 29.85 840 24.81 9.2 48.5 78 5.5 42
04:50 1011 29.85 840 24.81 9.2 48.6 77 5.4 41.7
04:55 1011 29.85 840 24.81 9.2 48.6 77 5.5 41.9
05:00 1011 29.85 840 24.81 9.2 48.6 78 5.5 41.9
05:05 1011 29.85 840 24.81 9.2 48.6 78 5.5 42
05:10 1011 29.85 840 24.81 9.2 48.6 77 5.5 41.8
05:15 1011 29.85 840 24.81 9.3 48.7 78 5.6 42.1
05:20 1011 29.85 840 24.81 9.3 48.7 78 5.6 42.1
05:25 1011 29.85 840 24.81 9.3 48.7 78 5.7 42.2
05:30 1011 29.85 840 24.81 9.3 48.7 78 5.7 42.2
05:35 1011 29.85 840 24.81 9.3 48.7 78 5.7 42.2
05:40 1011 29.85 840 24.81 9.3 48.8 78 5.7 42.3
05:45 1011 29.85 840 24.81 9.3 48.8 78 5.7 42.2
05:50 1011 29.85 840 24.81 9.4 48.8 78 5.8 42.4
05:55 1011 29.85 840 24.81 9.4 48.8 79 5.8 42.5
06:00 1011 29.85 840 24.81 9.4 48.8 79 5.9 42.6
06:05 1011 29.85 840 24.81 9.3 48.8 79 5.8 42.5
06:10 1011 29.85 840 24.81 9.3 48.7 79 5.8 42.4
06:15 1011 29.85 840 24.81 9.3 48.7 78 5.7 42.3
06:20 1011 29.85 840 24.81 9.3 48.7 78 5.6 42.1
06:25 1011 29.85 840 24.81 9.3 48.7 77 5.5 41.9
06:30 1011 29.85 840 24.81 9.2 48.6 78 5.5 41.9
06:35 1011 29.85 840 24.81 9.2 48.6 79 5.7 42.3
06:40 1011 29.85 840 24.81 9.2 48.5 79 5.7 42.3
06:45 1011 29.85 840 24.81 9.2 48.5 78 5.6 42.1
06:50 1011 29.85 840 24.81 9.2 48.5 79 5.7 42.3
06:55 1011 29.85 840 24.81 9.2 48.5 79 5.7 42.3
07:00 1011 29.85 840 24.81 9.2 48.5 79 5.8 42.4
07:05 1011 29.85 840 24.81 9.2 48.5 80 5.9 42.6
07:10 1011 29.85 840 24.81 9.2 48.5 80 5.9 42.5
07:15 1010 29.83 840 24.81 9.2 48.5 80 5.9 42.6
07:20 1010 29.83 839 24.78 9.2 48.5 80 5.9 42.7
07:25 1010 29.83 839 24.78 9.2 48.6 80 5.9 42.7
07:30 1010 29.83 840 24.81 9.3 48.7 79 5.8 42.5
07:35 1010 29.83 840 24.81 9.3 48.8 79 6 42.8
07:40 1011 29.85 840 24.81 9.4 48.8 79 5.9 42.7
07:45 1011 29.85 840 24.81 9.3 48.8 80 6 42.8
07:50 1011 29.85 840 24.81 9.3 48.7 80 6 42.9
07:55 1010 29.83 840 24.81 9.2 48.6 80 6 42.8
08:00 1010 29.83 840 24.81 9.1 48.5 81 6.1 43
08:05 1010 29.83 839 24.78 9.1 48.3 81 6.1 42.9
08:10 1010 29.83 839 24.78 9 48.2 82 6.2 43.1
08:15 1010 29.83 839 24.78 9 48.1 82 6.2 43.1
08:20 1010 29.83 839 24.78 9 48.1 81 6 42.7
08:25 1010 29.83 839 24.78 9.1 48.4 81 6 42.9
08:30 1010 29.83 839 24.78 9.1 48.4 81 6.1 42.9
08:35 1010 29.83 839 24.78 9.1 48.4 81 6 42.7
08:40 1010 29.83 839 24.78 9.1 48.3 81 5.9 42.7
08:45 1010 29.83 839 24.78 9.1 48.4 80 5.9 42.6
08:50 1010 29.83 839 24.78 9.1 48.3 80 5.9 42.6
08:55 1010 29.83 839 24.78 9.1 48.3 80 5.8 42.5
09:00 1010 29.83 839 24.78 9.1 48.4 80 5.9 42.6
09:05 1010 29.83 839 24.78 9.2 48.6 80 5.9 42.6
09:10 1010 29.83 839 24.78 9.4 48.9 79 5.9 42.6
09:15 1010 29.83 839 24.78 9.6 49.3 78 6 42.9
09:20 1010 29.83 839 24.78 9.8 49.6 78 6.2 43.1
09:25 1010 29.83 839 24.78 9.7 49.5 78 6.2 43.1
09:30 1010 29.83 839 24.78 9.8 49.7 78 6.2 43.2
09:35 1010 29.83 839 24.78 10.1 50.2 78 6.5 43.7
09:40 1010 29.83 839 24.78 10.3 50.6 76 6.3 43.4
09:45 1010 29.83 839 24.78 10.8 51.5 75 6.6 43.8
09:50 1010 29.83 839 24.78 10.9 51.6 76 6.8 44.2
09:55 1010 29.83 839 24.78 10.4 50.7 78 6.6 43.9
10:00 1010 29.83 839 24.78 10.1 50.2 77 6.4 43.5
10:05 1010 29.83 839 24.78 10.2 50.4 77 6.4 43.6
10:10 1010 29.83 839 24.78 10.2 50.4 77 6.4 43.5
10:15 1010 29.83 839 24.78 10 50.1 78 6.4 43.4
10:20 1010 29.83 840 24.81 10 50 78 6.4 43.5
10:25 1010 29.83 840 24.81 10.1 50.1 79 6.6 43.8
10:30 1011 29.85 840 24.81 10.1 50.3 78 6.5 43.8
10:35 1011 29.85 840 24.81 10.1 50.2 79 6.7 44
10:40 1011 29.85 840 24.81 10.1 50.1 81 7 44.5
10:45 1011 29.85 840 24.81 9.9 49.9 81 6.8 44.3
10:50 1011 29.85 840 24.81 9.7 49.5 83 7 44.7
10:55 1011 29.85 840 24.81 9.7 49.5 84 7.2 44.9
11:00 1011 29.85 840 24.81 10.2 50.3 82 7.2 45
11:05 1011 29.85 840 24.81 10.3 50.5 82 7.3 45.2
11:10 1011 29.85 840 24.81 10.8 51.5 80 7.6 45.7
11:15 1011 29.85 840 24.81 11.1 52 80 7.8 46.1
11:20 1011 29.85 840 24.81 11.4 52.6 78 7.8 46.1
11:25 1011 29.85 840 24.81 11.7 53.1 78 8 46.4
11:30 1011 29.85 840 24.81 12.3 54.1 73 7.7 45.8
11:35 1011 29.85 840 24.81 12.6 54.7 70 7.3 45.1
11:40 1011 29.85 840 24.81 12.9 55.1 68 7.1 44.8
11:45 1011 29.85 840 24.81 12.8 55 70 7.4 45.4
11:50 1011 29.85 840 24.81 13.1 55.5 68 7.4 45.3
11:55 1011 29.85 840 24.81 13.6 56.5 65 7.2 44.9
12:00 1011 29.85 840 24.81 13.6 56.5 64 7 44.6
12:05 1011 29.85 840 24.81 13.9 56.9 63 7.1 44.7
12:10 1011 29.85 840 24.81 14.2 57.5 64 7.5 45.5
12:15 1011 29.85 840 24.81 14.1 57.3 64 7.4 45.3
12:20 1011 29.85 840 24.81 14.1 57.4 63 7.3 45.1
12:25 1011 29.85 840 24.81 13.8 56.9 64 7.2 44.9
12:30 1011 29.85 840 24.81 13.4 56 69 7.9 46.2
12:35 1011 29.85 840 24.81 12.7 54.9 75 8.5 47.3
12:40 1012 29.88 841 24.83 11.8 53.2 75 7.6 45.6
12:45 1012 29.88 841 24.83 11.1 52 77 7.3 45.1
12:50 1012 29.88 841 24.83 11 51.7 80 7.7 45.8
12:55 1012 29.88 841 24.83 10.8 51.4 83 8.1 46.6
13:00 1012 29.88 841 24.83 11.4 52.5 80 8.1 46.5
13:05 1012 29.88 841 24.83 12.2 54 77 8.4 47.1
13:10 1012 29.88 841 24.83 12.6 54.7 80 9.3 48.8
13:15 1012 29.88 841 24.83 13 55.3 77 9.1 48.4
13:20 1012 29.88 841 24.83 13.3 56 71 8.2 46.8
13:25 1012 29.88 842 24.86 12.9 55.3 75 8.6 47.5
13:30 1012 29.88 842 24.86 12.4 54.4 72 7.7 45.8
13:35 1012 29.88 842 24.86 12.1 53.8 67 6.1 43
13:40 1012 29.88 842 24.86 12.7 54.8 66 6.6 43.9
13:45 1012 29.88 842 24.86 12.7 54.8 68 7 44.6
13:50 1012 29.88 842 24.86 12.8 55 67 7 44.6
13:55 1012 29.88 842 24.86 13.3 56 65 6.9 44.5
14:00 1013 29.91 842 24.86 14.1 57.3 63 7.3 45.1
14:05 1013 29.91 842 24.86 14.4 57.9 61 7.1 44.8
14:10 1013 29.91 842 24.86 14 57.2 65 7.7 45.8
14:15 1013 29.91 842 24.86 14.4 57.9 61 7.1 44.8
14:20 1013 29.91 842 24.86 14.2 57.6 62 7 44.7
14:25 1013 29.91 842 24.86 14.2 57.6 61 6.9 44.4
14:30 1013 29.91 842 24.86 14.2 57.5 63 7.4 45.2
14:35 1013 29.91 842 24.86 13.1 55.6 65 6.8 44.2
14:40 1013 29.91 842 24.86 12.8 55 66 6.5 43.8
14:45 1013 29.91 842 24.86 12.9 55.2 65 6.6 43.9
14:50 1013 29.91 842 24.86 13.5 56.4 63 6.8 44.2
14:55 1013 29.91 842 24.86 13.9 56.9 63 7 44.7
15:00 1013 29.91 842 24.86 14.1 57.3 62 6.9 44.5
15:05 1013 29.91 843 24.89 14.5 58 62 7.4 45.3
15:10 1013 29.91 843 24.89 14.7 58.5 57 6.4 43.5
15:15 1014 29.94 843 24.89 14.8 58.7 63 7.9 46.2
15:20 1014 29.94 843 24.89 14.6 58.4 61 7.4 45.3
15:25 1014 29.94 843 24.89 14.3 57.8 61 7 44.5
15:30 1014 29.94 843 24.89 14.8 58.6 58 6.8 44.2
15:35 1014 29.94 843 24.89 15.1 59.3 59 7.3 45.1
15:40 1014 29.94 843 24.89 14.4 58 60 6.9 44.4
15:45 1014 29.94 843 24.89 14.3 57.7 60 6.7 44
15:50 1014 29.94 843 24.89 14.4 57.9 60 6.8 44.3
15:55 1014 29.94 843 24.89 15.4 59.7 53 6 42.8
16:00 1014 29.94 843 24.89 16.3 61.4 51 6.3 43.3
16:05 1014 29.94 843 24.89 16.8 62.2 49 6 42.7
16:10 1014 29.94 843 24.89 17.1 62.8 47 5.7 42.3
16:15 1014 29.94 843 24.89 16.8 62.3 52 7.1 44.8
16:20 1014 29.94 843 24.89 16.1 60.9 51 6.1 42.9
16:25 1014 29.94 843 24.89 17 62.6 47 5.8 42.5
16:30 1014 29.94 843 24.89 17.5 63.5 48 6.5 43.7
16:35 1014 29.94 843 24.89 16.9 62.4 48 6 42.8
16:40 1014 29.94 843 24.89 17 62.5 45 5.1 41.1
16:45 1014 29.94 843 24.89 17 62.7 49 6.4 43.5
16:50 1014 29.94 843 24.89 16.1 61 51 6.1 43
16:55 1014 29.94 843 24.89 15.8 60.4 53 6.4 43.5
17:00 1014 29.94 843 24.89 15.3 59.6 52 5.5 42
17:05 1014 29.94 843 24.89 16.3 61.3 49 5.8 42.4
17:10 1014 29.94 843 24.89 16.5 61.7 49 5.7 42.3
17:15 1014 29.94 843 24.89 16.4 61.5 47 5.1 41.2
17:20 1014 29.94 844 24.92 16.7 62 47 5.4 41.7
17:25 1014 29.94 844 24.92 16.5 61.8 48 5.6 42.1
17:30 1014 29.94 844 24.92 17.1 62.7 46 5.5 41.9
17:35 1014 29.94 844 24.92 17.1 62.7 46 5.4 41.6
17:40 1014 29.94 844 24.92 17 62.6 46 5.3 41.6
17:45 1015 29.97 844 24.92 17 62.5 47 5.7 42.3
17:50 1015 29.97 844 24.92 16.6 61.8 48 5.6 42.1
17:55 1015 29.97 844 24.92 15.8 60.5 49 5.3 41.6
18:00 1015 29.97 844 24.92 15.8 60.4 51 5.7 42.3
18:05 1015 29.97 844 24.92 15.9 60.6 51 5.8 42.4
18:10 1015 29.97 844 24.92 15.9 60.6 49 5.3 41.5
18:15 1015 29.97 844 24.92 16.2 61.2 49 5.8 42.4
18:20 1015 29.97 844 24.92 16.2 61.1 46 4.8 40.6
18:25 1015 29.97 844 24.92 16.3 61.4 47 5.1 41.3
18:30 1015 29.97 844 24.92 16 60.7 48 5 41.1
18:35 1015 29.97 844 24.92 16.4 61.5 47 5.2 41.4
18:40 1015 29.97 844 24.92 16.2 61.1 47 5.1 41.2
18:45 1015 29.97 844 24.92 16.2 61.2 47 4.9 40.8
18:50 1015 29.97 844 24.92 16.3 61.3 46 4.6 40.2
18:55 1015 29.97 844 24.92 15.9 60.7 46 4.5 40.2
19:00 1015 29.97 844 24.92 15.8 60.5 48 5 41
19:05 1015 29.97 844 24.92 16.1 60.9 46 4.5 40.2
19:10 1015 29.97 844 24.92 16 60.8 48 5.2 41.3
19:15 1015 29.97 844 24.92 15.9 60.5 46 4.3 39.7
19:20 1015 29.97 845 24.95 15.9 60.7 45 4.1 39.5
19:25 1015 29.97 845 24.95 16.1 61 45 4.2 39.6
19:30 1015 29.97 845 24.95 15.9 60.7 46 4.4 39.9
19:35 1015 29.97 845 24.95 15.8 60.5 47 4.5 40.1
19:40 1016 30 845 24.95 15.7 60.2 48 4.8 40.6
19:45 1016 30 845 24.95 15.5 59.9 49 4.8 40.7
19:50 1016 30 845 24.95 15.3 59.6 51 5.4 41.7
19:55 1016 30 845 24.95 15 59 51 5.1 41.3
20:00 1016 30 845 24.95 14.8 58.7 52 5.1 41.3
20:05 1016 30 845 24.95 14.6 58.3 52 4.9 40.9
20:10 1016 30 845 24.95 14.4 58 53 5.1 41.2
20:15 1016 30 845 24.95 14.3 57.8 54 5.1 41.2
20:20 1016 30 845 24.95 14.3 57.7 53 4.8 40.7
20:25 1016 30 846 24.98 14.2 57.5 53 4.7 40.4
20:30 1016 30 846 24.98 14 57.3 53 4.8 40.6
20:35 1016 30 846 24.98 14 57.1 55 5.1 41.2
20:40 1017 30.03 846 24.98 13.9 57.1 55 5.2 41.3
20:45 1017 30.03 846 24.98 13.9 57 55 5 41
20:50 1017 30.03 846 24.98 13.8 56.8 55 4.9 40.8
20:55 1017 30.03 846 24.98 13.7 56.7 56 5.1 41.2
21:00 1017 30.03 846 24.98 13.7 56.6 56 5 41
21:05 1017 30.03 846 24.98 13.5 56.3 56 5 40.9
21:10 1017 30.03 846 24.98 13.4 56.1 57 5.2 41.4
21:15 1017 30.03 846 24.98 13.2 55.8 60 5.6 42
21:20 1017 30.03 846 24.98 13.1 55.5 61 5.7 42.2
21:25 1017 30.03 846 24.98 13 55.5 61 5.8 42.5
21:30 1017 30.03 846 24.98 13 55.3 62 6 42.7
21:35 1017 30.03 846 24.98 12.9 55.3 63 6.1 42.9
21:40 1017 30.03 846 24.98 12.9 55.1 63 6.1 43.1
21:45 1017 30.03 846 24.98 12.8 55 64 6.3 43.3
21:50 1017 30.03 846 24.98 12.6 54.8 66 6.6 43.8
21:55 1017 30.03 846 24.98 12.2 54 69 6.7 44.1
22:00 1017 30.03 846 24.98 12 53.6 71 7 44.5
22:05 1017 30.03 846 24.98 11.9 53.3 73 7.2 44.9
22:10 1017 30.03 846 24.98 11.7 53 73 7.1 44.7
22:15 1017 30.03 846 24.98 11.5 52.7 74 7.1 44.7
22:20 1017 30.03 846 24.98 11.3 52.4 75 7 44.6
22:25 1017 30.03 847 25.01 11.2 52.2 75 6.9 44.4
22:30 1018 30.06 847 25.01 11.1 52 75 6.8 44.3
22:35 1018 30.06 847 25.01 11.1 52 75 6.9 44.3
22:40 1018 30.06 847 25.01 11 51.9 75 6.8 44.2
22:45 1018 30.06 847 25.01 11.1 51.9 75 6.8 44.2
22:50 1018 30.06 847 25.01 11.1 52 75 6.9 44.4
22:55 1018 30.06 847 25.01 11.1 52 75 6.9 44.5
23:00 1018 30.06 847 25.01 11 51.8 76 7 44.6
23:05 1018 30.06 847 25.01 11 51.8 76 6.9 44.3
23:10 1018 30.06 847 25.01 11 51.9 75 6.9 44.4
23:15 1018 30.06 847 25.01 11 51.9 75 6.9 44.4
23:20 1018 30.06 847 25.01 11.1 51.9 75 6.9 44.4
23:25 1018 30.06 847 25.01 11 51.9 75 6.8 44.3
23:30 1018 30.06 847 25.01 11 51.8 76 6.9 44.4
23:35 1018 30.06 847 25.01 10.8 51.5 77 6.9 44.4
23:40 1018 30.06 847 25.01 10.8 51.4 77 6.8 44.3
23:45 1018 30.06 847 25.01 10.7 51.2 78 6.9 44.5
23:50 1018 30.06 847 25.01 10.4 50.8 79 6.9 44.5
23:55 1017 30.03 847 25.01 10.3 50.6 79 6.9 44.5
24:00 1018 30.06 847 25.01 10.4 50.7 79 6.8 44.3